Aérodrome :
LOGIN :

S'inscrire | Disclaimer

   EN    FR    IT 

 










Légende :    VFR   VFR Marginal   IFR   IFR Intensif   IFR Très Intensif
Visi : 
Plafond : 
>= 8 km
>= 3000ft
5 à 8 km
1000 à 3000 ft
1500m à 5 km
500 à 1000 ft
800 à 1500m
200 à 500 ft
< 800m
< 200 ft
Symboles :   Orages  Brouillard  Fortes neiges  Fortes précipitations  Vent > 20 kt
SIGMETs :   Divers  Orages  Givrage  Turbulence  Onde Orograph.  Cendres Volcan.






- Altitude de l'aérodrome : 1966 ft
- Code IATA : SGE


EDGS - Siegerland

DERNIER METAR :
  • 211050Z 23009KT 180V270 9999 FEW026 24/17 Q1010

METARs EXPIRÉS :
  • 211020Z 19007KT 150V240 CAVOK 23/15 Q1010
  • 210950Z 23007KT 190V300 CAVOK 23/15 Q1010
  • 210920Z 27006KT 230V300 CAVOK 22/17 Q1010
  • 210850Z 26005KT 230V290 9999 FEW042 20/17 Q1010
  • 210820Z 24007KT 210V290 9999 VCSH FEW044 21/17 Q1010
  • 210750Z 29009KT 250V310 CAVOK 21/17 Q1009
  • 210720Z 27009KT CAVOK 22/16 Q1009
  • 210650Z 26009KT CAVOK 21/17 Q1009
  • 210620Z 23008KT CAVOK 20/17 Q1009

TAF TAF EDGS
Valide du 21 à 09h jusqu'au 21 à 18h UTC


210800Z 2109/2118 27008KT 9999 SCT040
TEMPO 2109/2118 4000 SHRA SCT012 BKN020CB
PROB30
TEMPO 2111/2118 21015G25KT 2000 +TSRA BKN007 BKN015CB



MET'MAP, la Météo Aéronautique d'un coup d'oeil ! - Copyright ORBIFLY Décembre 2007 - Disclaimer

ORBIFLY MET'MAP TEAM :

Programmation & Développement : Alexandra Zaïnal
Sur une idée originale de : Baudouin d'Aumeries
Soutien technique & logistique : Manuel Goepfert
Assistance : Marc-Olivier Méhu




SOURCES & CREDITS :

   NOAA